Time;durP1;ratioP1;P1;durP2;ratioP2;P2;SDS_P1;SDS_P2;PMS_P1;PMS_P2;Temp;Humidity;BMP_temperature;BMP_pressure;BME280_temperature;BME280_humidity;BME280_pressure;Samples;Min_cycle;Max_cycle;Signal;HPM_P1;HPM_P2
2021/01/23 00:02:03;;;;;;;29.60;15.43;;;;;;;0.44;94.29;96844.38;4904380;29;20028;-70
2021/01/23 00:04:29;;;;;;;48.70;23.65;;;;;;;0.49;94.04;96842.63;4914214;29;20046;-70
2021/01/23 00:06:54;;;;;;;30.67;15.82;;;;;;;0.50;94.21;96849.41;4914055;29;20609;-70
2021/01/23 00:09:19;;;;;;;29.98;13.68;;;;;;;0.46;94.15;96853.69;4906537;29;20119;-70
2021/01/23 00:11:45;;;;;;;22.45;12.23;;;;;;;0.45;94.29;96851.16;4902308;29;20035;-70
2021/01/23 00:14:10;;;;;;;37.92;19.38;;;;;;;0.44;94.10;96854.56;4912102;29;20051;-70
2021/01/23 00:16:35;;;;;;;11.30;8.43;;;;;;;0.52;94.42;96860.41;4905351;29;20063;-70
2021/01/23 00:19:00;;;;;;;8.52;6.93;;;;;;;0.58;94.17;96862.94;4907452;29;20393;-70
2021/01/23 00:21:26;;;;;;;5.88;5.35;;;;;;;0.54;94.57;96865.53;4906376;29;20042;-70
2021/01/23 00:23:51;;;;;;;5.68;4.55;;;;;;;0.55;93.51;96878.25;4904609;29;20478;-70
2021/01/23 00:26:16;;;;;;;6.07;5.25;;;;;;;0.44;94.09;96885.13;4904364;29;20482;-70
2021/01/23 00:28:42;;;;;;;4.90;4.40;;;;;;;0.37;94.14;96893.69;4913307;29;20516;-70
2021/01/23 00:31:07;;;;;;;4.50;4.18;;;;;;;0.27;94.57;96897.16;4907900;29;20032;-70
2021/01/23 00:33:32;;;;;;;4.60;4.20;;;;;;;0.35;94.89;96900.50;4902117;29;20035;-70
2021/01/23 00:35:58;;;;;;;4.53;4.13;;;;;;;0.46;94.49;96903.78;4902204;29;20037;-70
2021/01/23 00:38:23;;;;;;;4.88;4.38;;;;;;;0.50;94.20;96901.19;4913210;29;20032;-70
2021/01/23 00:40:48;;;;;;;4.97;4.43;;;;;;;0.64;93.73;96901.09;4908152;29;20039;-70
2021/01/23 00:43:14;;;;;;;4.13;3.75;;;;;;;0.54;93.96;96896.09;4901948;29;20028;-70
2021/01/23 00:45:39;;;;;;;4.43;4.13;;;;;;;0.49;94.34;96904.63;4902174;29;20039;-69
2021/01/23 00:48:10;;;;;;;4.53;4.13;;;;;;;0.51;94.15;96909.69;4912011;29;20442;-70
2021/01/23 00:50:35;;;;;;;5.38;3.58;;;;;;;0.73;93.50;96900.16;4913434;29;20047;-70
2021/01/23 00:53:00;;;;;;;4.72;4.32;;;;;;;0.60;93.69;96912.16;4913553;29;20056;-70
2021/01/23 00:55:26;;;;;;;4.63;3.55;;;;;;;0.56;93.67;96915.59;4913371;29;20158;-70
2021/01/23 00:57:51;;;;;;;3.92;3.60;;;;;;;0.59;93.80;96920.66;4913586;29;20028;-70
2021/01/23 08:02:52;;;;;;;8.80;6.43;;;;;;;1.44;93.59;97276.16;4888204;29;20069;-75
2021/01/23 08:05:18;;;;;;;12.75;7.57;;;;;;;1.54;93.78;97265.03;4889714;29;20087;-75
2021/01/23 08:07:44;;;;;;;9.02;6.95;;;;;;;1.59;93.67;97262.44;4889741;29;20036;-75
2021/01/23 08:10:13;;;;;;;21.23;9.95;;;;;;;1.67;92.68;97262.41;4889172;29;20633;-75
2021/01/23 08:12:41;;;;;;;24.70;12.13;;;;;;;1.45;92.24;97264.22;4870721;29;20043;-75
2021/01/23 08:15:08;;;;;;;28.88;11.82;;;;;;;1.33;92.86;97264.31;4917168;23;20048;-66
2021/01/23 08:17:45;;;;;;;27.10;13.43;;;;;;;1.09;93.55;97263.59;4908354;29;20039;-66
2021/01/23 08:20:15;;;;;;;20.52;10.35;;;;;;;1.12;93.57;97258.50;4908297;29;20090;-66
2021/01/23 08:23:03;;;;;;;21.92;10.77;;;;;;;1.07;93.92;97257.69;4912750;29;20134;-66
2021/01/23 08:25:30;;;;;;;17.60;10.10;;;;;;;1.38;92.68;97254.94;4883124;29;20088;-66
2021/01/23 08:27:56;;;;;;;17.92;11.43;;;;;;;1.37;93.27;97248.16;4889345;29;20039;-66
2021/01/23 08:30:24;;;;;;;18.77;9.60;;;;;;;1.71;92.28;97247.03;4889198;29;20043;-66
2021/01/23 08:32:50;;;;;;;32.40;10.75;;;;;;;2.01;91.21;97247.66;4887859;29;20029;-66
2021/01/23 08:35:16;;;;;;;19.05;7.93;;;;;;;2.31;90.93;97246.50;4889148;29;20439;-66
2021/01/23 08:37:42;;;;;;;19.95;9.45;;;;;;;2.51;89.58;97238.63;4889107;29;20033;-67
2021/01/23 08:40:07;;;;;;;17.08;10.27;;;;;;;2.43;88.15;97250.66;4889026;29;20409;-67
2021/01/23 08:42:33;;;;;;;31.15;14.45;;;;;;;2.74;87.11;97236.66;4888860;29;20036;-66
2021/01/23 08:44:58;;;;;;;28.08;15.43;;;;;;;3.09;85.94;97240.47;4888943;29;20039;-66
2021/01/23 08:47:24;;;;;;;11.73;7.78;;;;;;;3.30;84.77;97232.53;4889131;29;20059;-66
2021/01/23 08:49:49;;;;;;;18.70;8.32;;;;;;;3.59;85.12;97236.38;4889010;29;20028;-66
2021/01/23 08:52:14;;;;;;;14.77;6.93;;;;;;;3.94;82.83;97228.13;4893520;29;20028;-66
2021/01/23 08:54:40;;;;;;;19.00;7.65;;;;;;;3.70;82.67;97225.94;4888759;29;20033;-67
2021/01/23 08:57:05;;;;;;;10.80;6.35;;;;;;;4.23;82.84;97229.31;4888777;29;20039;-67
2021/01/23 08:59:31;;;;;;;18.73;7.25;;;;;;;4.48;79.71;97222.03;4903160;29;20064;-66
2021/01/23 09:01:57;;;;;;;11.10;5.90;;;;;;;4.26;80.80;97225.00;4888809;29;20439;-66
2021/01/23 09:04:22;;;;;;;16.77;5.95;;;;;;;4.14;81.44;97227.78;4888803;29;20581;-67
2021/01/23 09:06:47;;;;;;;15.38;6.78;;;;;;;4.17;81.81;97222.59;4887997;29;20577;-67
2021/01/23 09:09:13;;;;;;;24.50;8.50;;;;;;;4.85;78.73;97217.88;4903115;29;20032;-66
2021/01/23 09:11:38;;;;;;;14.18;7.93;;;;;;;4.79;79.76;97218.00;4865942;29;20046;-67
2021/01/23 09:14:07;;;;;;;18.58;7.20;;;;;;;5.77;75.64;97205.53;4850522;29;20518;-67
2021/01/23 09:16:32;;;;;;;14.38;6.65;;;;;;;5.12;76.77;97215.59;4851295;29;20447;-67
2021/01/23 09:19:01;;;;;;;20.70;6.15;;;;;;;4.92;77.51;97207.47;4851641;29;20125;-66
2021/01/23 09:21:27;;;;;;;19.13;7.47;;;;;;;4.39;79.62;97213.63;4851247;29;20037;-67
2021/01/23 09:23:52;;;;;;;17.25;9.05;;;;;;;4.49;79.78;97218.59;4851396;29;20041;-67
2021/01/23 09:26:18;;;;;;;14.50;7.68;;;;;;;4.09;82.06;97222.72;4851280;29;20064;-67
2021/01/23 09:28:43;;;;;;;13.02;6.38;;;;;;;4.01;82.39;97221.16;4851396;29;20725;-66
2021/01/23 09:31:08;;;;;;;18.52;6.55;;;;;;;4.17;81.82;97217.47;4851064;29;20039;-67
2021/01/23 09:33:34;;;;;;;17.52;6.95;;;;;;;5.00;80.67;97205.59;4851173;29;20128;-66
2021/01/23 09:36:00;;;;;;;14.30;7.00;;;;;;;4.97;79.96;97213.34;4847770;29;20102;-67
2021/01/23 09:38:26;;;;;;;16.83;6.75;;;;;;;5.81;76.39;97204.59;4847457;29;20053;-66
2021/01/23 09:40:52;;;;;;;23.92;7.68;;;;;;;5.70;75.09;97201.41;4852742;29;20708;-67
2021/01/23 09:43:17;;;;;;;13.50;6.65;;;;;;;5.64;75.85;97199.84;4854622;29;20029;-67
2021/01/23 09:45:42;;;;;;;16.35;6.90;;;;;;;5.76;75.31;97196.16;4854868;29;20040;-67
2021/01/23 09:48:08;;;;;;;12.93;6.53;;;;;;;6.16;74.44;97185.72;4853172;29;20185;-67
2021/01/23 09:50:33;;;;;;;15.10;6.35;;;;;;;6.20;74.77;97180.50;4853231;29;20121;-67
2021/01/23 09:52:58;;;;;;;10.57;6.68;;;;;;;5.97;75.31;97170.81;4853090;29;20061;-67
2021/01/23 09:55:24;;;;;;;16.58;8.52;;;;;;;6.35;74.30;97170.66;4854561;29;20117;-67
2021/01/23 09:57:49;;;;;;;11.52;6.75;;;;;;;6.90;71.84;97158.78;4854230;29;20037;-67
2021/01/23 10:00:16;;;;;;;9.20;6.18;;;;;;;8.24;67.85;97145.88;4854422;29;20034;-67
2021/01/23 10:02:41;;;;;;;15.05;5.28;;;;;;;9.30;65.57;97154.06;4854119;29;20072;-67
2021/01/23 10:05:08;;;;;;;3.60;2.55;;;;;;;9.91;58.35;97147.28;4854348;29;20136;-67
2021/01/23 10:07:33;;;;;;;5.18;3.15;;;;;;;10.75;58.25;97150.56;4848558;29;20089;-66
2021/01/23 10:09:58;;;;;;;3.50;2.08;;;;;;;10.53;55.96;97146.34;4868267;29;20033;-66
2021/01/23 10:12:26;;;;;;;1.50;1.40;;;;;;;10.22;58.10;97143.38;4853872;29;20033;-66
2021/01/23 10:14:51;;;;;;;4.05;2.58;;;;;;;10.82;53.35;97136.41;4854127;29;20067;-66
2021/01/23 10:17:17;;;;;;;3.88;2.08;;;;;;;9.77;56.03;97141.81;4854232;29;20128;-67
2021/01/23 10:19:42;;;;;;;4.00;2.40;;;;;;;10.65;55.42;97133.78;4854159;29;20029;-67
2021/01/23 10:22:07;;;;;;;4.10;2.63;;;;;;;10.32;55.22;97128.31;4853936;29;20124;-66
2021/01/23 10:24:33;;;;;;;3.65;2.53;;;;;;;10.68;55.96;97128.44;4854071;29;20492;-67
2021/01/23 10:26:58;;;;;;;4.38;2.58;;;;;;;11.63;54.76;97118.81;4853709;29;20098;-68
2021/01/23 10:29:24;;;;;;;1.40;1.30;;;;;;;11.84;50.80;97117.75;4853909;29;20037;-68
2021/01/23 10:31:49;;;;;;;2.83;1.65;;;;;;;11.78;52.53;97118.03;4854365;29;20041;-73
2021/01/23 10:34:14;;;;;;;2.97;1.60;;;;;;;12.09;49.67;97102.66;4853775;29;20154;-68
2021/01/23 10:36:40;;;;;;;2.45;1.60;;;;;;;11.55;53.28;97109.63;4853608;29;20120;-68
2021/01/23 10:39:06;;;;;;;9.02;1.70;;;;;;;12.14;50.44;97104.19;4853127;29;20041;-68
2021/01/23 10:41:31;;;;;;;2.35;1.98;;;;;;;8.62;57.03;97111.88;4853373;29;20389;-68
2021/01/23 10:43:57;;;;;;;1.92;1.70;;;;;;;8.38;62.37;97114.44;4853598;29;20044;-68
2021/01/23 10:46:22;;;;;;;1.85;1.65;;;;;;;9.93;56.58;97093.72;4853559;29;20033;-68
2021/01/23 10:48:47;;;;;;;3.33;2.15;;;;;;;10.74;51.79;97087.56;4853536;29;20044;-68
2021/01/23 10:51:14;;;;;;;6.68;2.40;;;;;;;12.23;51.14;97082.91;4846836;29;20037;-73
2021/01/23 10:53:39;;;;;;;1.60;1.50;;;;;;;9.51;54.33;97094.59;4853083;29;20053;-73
2021/01/23 10:56:05;;;;;;;10.82;2.53;;;;;;;10.27;54.31;97087.09;4853445;29;20037;-73
2021/01/23 10:58:30;;;;;;;2.05;1.83;;;;;;;10.14;55.88;97079.00;4853454;29;20466;-73
2021/01/23 11:00:55;;;;;;;4.32;2.10;;;;;;;9.04;58.91;97085.31;4853357;29;20040;-74
2021/01/23 11:03:21;;;;;;;2.67;2.08;;;;;;;8.87;60.05;97084.22;4854194;29;20113;-73
2021/01/23 11:05:46;;;;;;;7.40;2.28;;;;;;;8.44;60.34;97078.09;4852733;29;21229;-74
2021/01/23 11:08:11;;;;;;;2.55;1.88;;;;;;;7.77;61.73;97077.03;4867443;29;20032;-74
2021/01/23 11:10:38;;;;;;;2.47;2.10;;;;;;;7.76;63.35;97072.78;4852966;29;20040;-68
2021/01/23 11:13:03;;;;;;;3.92;2.20;;;;;;;7.80;63.92;97057.16;4853278;29;21112;-75
2021/01/23 11:15:29;;;;;;;4.53;2.80;;;;;;;7.27;64.19;97069.25;4853373;29;20041;-68
2021/01/23 11:17:54;;;;;;;3.00;2.70;;;;;;;7.89;63.05;97062.00;4852954;29;20029;-69
2021/01/23 11:20:20;;;;;;;4.53;2.60;;;;;;;7.44;67.36;97065.22;4852847;29;20062;-69
2021/01/23 11:22:46;;;;;;;7.70;2.70;;;;;;;6.25;69.11;97063.78;4853022;29;20036;-74
2021/01/23 11:25:14;;;;;;;4.60;2.60;;;;;;;6.74;66.90;97058.91;4853022;29;20497;-67
2021/01/23 11:27:40;;;;;;;4.50;2.53;;;;;;;7.32;67.07;97047.59;4852889;29;20064;-67
2021/01/23 11:30:07;;;;;;;2.90;2.33;;;;;;;6.23;71.65;97044.97;4852908;29;20112;-68
2021/01/23 11:32:32;;;;;;;2.20;2.00;;;;;;;5.91;68.44;97044.16;4861786;29;20380;-69
2021/01/23 11:34:58;;;;;;;3.90;2.30;;;;;;;5.59;70.22;97036.41;4852632;29;20029;-68
2021/01/23 11:37:23;;;;;;;6.25;2.30;;;;;;;6.84;67.58;97038.00;4853485;29;20033;-74
2021/01/23 11:39:48;;;;;;;2.85;2.08;;;;;;;8.07;61.55;97018.38;4852747;29;20029;-74
2021/01/23 11:42:14;;;;;;;1.90;1.80;;;;;;;8.01;63.15;97028.91;4854770;29;20437;-66
2021/01/23 11:44:39;;;;;;;2.30;2.08;;;;;;;7.73;62.45;97035.03;4868285;29;20129;-68
2021/01/23 11:47:04;;;;;;;2.40;2.13;;;;;;;8.24;62.45;97021.19;4854463;29;20371;-68
2021/01/23 11:49:30;;;;;;;3.10;2.53;;;;;;;9.10;61.70;97013.59;4856972;29;20058;-75
2021/01/23 11:51:55;;;;;;;3.55;1.98;;;;;;;8.98;60.96;97014.91;4858188;29;20507;-67
2021/01/23 11:54:20;;;;;;;2.70;2.08;;;;;;;9.75;57.12;97002.22;4853077;29;20037;-74
2021/01/23 11:56:46;;;;;;;2.17;1.95;;;;;;;8.61;64.24;97009.53;4852481;29;20500;-76
2021/01/23 11:59:11;;;;;;;2.88;2.03;;;;;;;9.33;58.46;97002.31;4852180;29;20507;-74
2021/01/23 12:01:37;;;;;;;2.90;2.28;;;;;;;9.84;56.72;97000.97;4852695;29;20033;-76
2021/01/23 12:04:02;;;;;;;2.08;1.95;;;;;;;8.82;58.68;96997.50;4851868;29;20029;-75
2021/01/23 12:06:28;;;;;;;2.80;2.38;;;;;;;9.61;59.16;96986.44;4852270;29;20502;-75
2021/01/23 12:08:53;;;;;;;4.40;2.50;;;;;;;9.72;60.92;96979.09;4852295;29;20034;-67
2021/01/23 12:11:18;;;;;;;7.70;2.47;;;;;;;10.93;54.61;96972.72;4850579;29;20033;-69
2021/01/23 12:13:44;;;;;;;3.35;2.30;;;;;;;9.31;57.58;96975.66;4852238;29;20040;-74
2021/01/23 12:16:09;;;;;;;6.57;2.60;;;;;;;9.05;58.65;96973.34;4852460;29;20045;-69
2021/01/23 12:18:35;;;;;;;3.70;2.60;;;;;;;9.93;56.52;96963.53;4852007;29;20056;-69
2021/01/23 12:21:00;;;;;;;4.75;2.58;;;;;;;9.75;59.21;96960.81;4852432;29;20030;-74
2021/01/23 12:23:26;;;;;;;3.47;2.80;;;;;;;10.61;55.66;96954.34;4852021;29;20366;-68
2021/01/23 12:25:51;;;;;;;3.85;2.75;;;;;;;9.99;56.32;96958.06;4851602;29;20036;-67
2021/01/23 12:28:16;;;;;;;5.22;3.30;;;;;;;9.13;58.09;96956.59;4851949;29;20066;-73
2021/01/23 12:30:42;;;;;;;7.32;4.00;;;;;;;9.00;57.72;96956.28;4851826;29;20084;-75
2021/01/23 12:33:07;;;;;;;5.18;3.40;;;;;;;8.83;59.81;96953.53;4852248;29;20044;-74
2021/01/23 12:35:33;;;;;;;4.57;3.20;;;;;;;9.18;59.08;96948.66;4852339;29;20507;-74
2021/01/23 12:37:58;;;;;;;4.35;3.15;;;;;;;8.50;62.49;96946.22;4851892;29;20044;-75
2021/01/23 12:40:25;;;;;;;5.32;2.83;;;;;;;9.08;60.52;96942.19;4852264;29;20033;-74
2021/01/23 12:42:50;;;;;;;3.03;2.72;;;;;;;8.70;61.46;96942.00;4851651;29;20069;-74
2021/01/23 12:45:16;;;;;;;3.67;3.10;;;;;;;7.18;67.78;96951.91;4853323;29;20037;-75
2021/01/23 12:47:42;;;;;;;3.88;3.13;;;;;;;6.93;68.62;96945.03;4852137;29;20038;-75
2021/01/23 12:50:07;;;;;;;4.50;3.22;;;;;;;6.78;68.01;96944.69;4852322;29;20037;-76
2021/01/23 12:52:33;;;;;;;5.95;3.38;;;;;;;6.83;68.01;96946.22;4846366;29;20037;-76
2021/01/23 12:54:59;;;;;;;3.80;3.25;;;;;;;6.94;70.86;96936.41;4852138;29;20033;-75
2021/01/23 12:57:24;;;;;;;5.43;3.28;;;;;;;6.91;66.87;96936.53;4852088;29;20403;-74
2021/01/23 12:59:49;;;;;;;4.00;3.40;;;;;;;7.00;66.14;96929.38;4852350;29;20037;-67
2021/01/23 13:02:15;;;;;;;5.97;3.30;;;;;;;7.03;67.45;96934.41;4854136;29;20306;-75
2021/01/23 13:04:40;;;;;;;5.80;3.42;;;;;;;7.02;67.87;96932.75;4853671;29;20063;-67
2021/01/23 13:07:07;;;;;;;4.53;3.00;;;;;;;7.27;66.92;96928.44;4849690;29;20025;-75
2021/01/23 13:09:34;;;;;;;4.38;2.92;;;;;;;6.79;69.02;96926.63;4855960;29;20033;-69
2021/01/23 13:12:00;;;;;;;4.28;2.88;;;;;;;6.86;68.64;96932.38;4851204;29;20036;-68
2021/01/23 13:14:25;;;;;;;5.00;3.72;;;;;;;6.57;66.97;96925.63;4850294;29;20385;-76
2021/01/23 13:16:51;;;;;;;9.73;3.20;;;;;;;6.41;69.58;96920.97;4851796;29;20049;-77
2021/01/23 13:19:16;;;;;;;4.55;3.15;;;;;;;6.26;71.68;96916.31;4850194;29;20056;-76
2021/01/23 13:21:41;;;;;;;6.03;3.92;;;;;;;5.76;71.72;96918.63;4850317;29;20044;-70
2021/01/23 13:24:07;;;;;;;5.35;3.90;;;;;;;6.21;73.03;96918.16;4851173;29;20034;-66
2021/01/23 13:26:33;;;;;;;5.97;3.55;;;;;;;5.93;71.50;96916.41;4848722;29;20407;-66
2021/01/23 13:29:00;;;;;;;5.68;4.20;;;;;;;6.03;73.51;96903.28;4850766;29;20089;-67
2021/01/23 13:31:26;;;;;;;5.78;4.35;;;;;;;5.98;71.78;96906.00;4849651;29;20041;-67
2021/01/23 13:33:53;;;;;;;9.90;5.13;;;;;;;6.43;71.84;96903.75;4864946;29;20030;-72
2021/01/23 13:36:19;;;;;;;7.57;4.55;;;;;;;6.26;72.81;96902.59;4850906;29;20763;-67
2021/01/23 13:38:44;;;;;;;5.43;4.32;;;;;;;6.04;72.49;96899.84;4850946;29;20485;-67
2021/01/23 13:41:10;;;;;;;6.35;3.88;;;;;;;5.87;73.88;96898.59;4850886;29;20029;-67
2021/01/23 13:43:35;;;;;;;6.32;4.05;;;;;;;5.83;74.20;96896.16;4850840;29;20527;-72
2021/01/23 13:46:00;;;;;;;6.65;4.53;;;;;;;5.86;74.07;96891.78;4852767;29;20460;-73
2021/01/23 13:48:26;;;;;;;6.63;4.60;;;;;;;5.55;75.94;96890.97;4853562;29;20077;-73
2021/01/23 13:50:51;;;;;;;6.43;4.43;;;;;;;5.59;76.29;96895.13;4851219;29;20391;-67
2021/01/23 13:53:16;;;;;;;8.73;5.38;;;;;;;5.59;76.05;96887.44;4853170;29;20041;-71
2021/01/23 13:55:42;;;;;;;10.77;6.07;;;;;;;5.62;76.88;96892.50;4853085;29;20487;-73
2021/01/23 13:58:07;;;;;;;6.93;4.95;;;;;;;5.28;75.58;96885.72;4853414;29;20030;-71
2021/01/23 14:00:32;;;;;;;10.82;4.65;;;;;;;5.23;76.10;96885.03;4850880;29;20125;-71
2021/01/23 14:02:58;;;;;;;8.60;4.72;;;;;;;4.86;77.22;96880.84;4851910;29;20037;-67
2021/01/23 14:05:23;;;;;;;7.07;4.80;;;;;;;4.73;77.53;96879.47;4849519;29;20085;-67
2021/01/23 14:07:49;;;;;;;7.15;4.82;;;;;;;4.68;78.16;96881.31;4851131;29;20722;-74
2021/01/23 14:10:14;;;;;;;9.10;5.30;;;;;;;4.64;78.52;96879.72;4851398;29;20049;-67
2021/01/23 14:12:40;;;;;;;11.45;5.22;;;;;;;4.66;78.71;96877.13;4850926;29;20470;-68
2021/01/23 14:15:06;;;;;;;8.60;5.40;;;;;;;4.74;78.08;96865.78;4851786;29;20097;-71
2021/01/23 14:17:32;;;;;;;8.38;5.80;;;;;;;4.68;78.40;96860.81;4867246;29;20084;-67
2021/01/23 14:19:57;;;;;;;16.90;10.02;;;;;;;4.76;79.04;96858.88;4850587;29;20034;-67
2021/01/23 14:22:23;;;;;;;10.13;6.57;;;;;;;4.78;78.38;96841.72;4852933;29;20040;-71
2021/01/23 14:24:50;;;;;;;15.10;5.70;;;;;;;4.52;78.04;96841.56;4853056;29;20047;-71
2021/01/23 14:27:19;;;;;;;7.18;5.18;;;;;;;4.44;78.13;96835.78;4854227;29;20037;-71
2021/01/23 14:29:46;;;;;;;9.18;5.32;;;;;;;4.31;79.08;96833.53;4854767;29;20061;-67
2021/01/23 14:32:13;;;;;;;10.90;5.82;;;;;;;4.20;79.50;96835.50;4868101;29;20391;-73
2021/01/23 14:34:39;;;;;;;10.27;5.88;;;;;;;4.20;79.82;96826.97;4854443;29;20037;-67
2021/01/23 14:37:04;;;;;;;12.15;5.75;;;;;;;4.06;80.74;96824.72;4854657;29;20044;-71
2021/01/23 14:39:30;;;;;;;8.07;5.35;;;;;;;4.08;80.78;96823.00;4854229;29;20032;-74
2021/01/23 14:41:55;;;;;;;13.50;5.50;;;;;;;4.07;80.47;96821.31;4854529;29;20026;-67
2021/01/23 14:44:20;;;;;;;8.05;5.10;;;;;;;4.07;80.35;96824.72;4853156;29;20559;-67
2021/01/23 14:46:46;;;;;;;12.32;5.68;;;;;;;3.95;81.12;96826.72;4853856;29;20093;-67
2021/01/23 14:49:11;;;;;;;11.98;6.90;;;;;;;3.98;82.81;96824.09;4854165;29;20021;-74
2021/01/23 14:51:36;;;;;;;11.35;7.18;;;;;;;3.83;82.95;96823.56;4853884;29;20045;-67
2021/01/23 14:54:02;;;;;;;9.88;5.78;;;;;;;3.86;83.10;96828.59;4853684;29;20040;-67
2021/01/23 14:56:27;;;;;;;10.82;6.72;;;;;;;3.83;83.56;96831.25;4854097;29;20065;-67
2021/01/23 14:58:53;;;;;;;8.20;6.18;;;;;;;3.88;83.11;96835.44;4853837;29;20033;-74
2021/01/23 15:01:18;;;;;;;9.88;6.80;;;;;;;3.90;83.33;96833.66;4853982;29;20656;-74
2021/01/23 15:03:44;;;;;;;12.82;7.63;;;;;;;3.81;84.14;96832.97;4855258;29;20124;-72
2021/01/23 15:06:10;;;;;;;12.18;7.22;;;;;;;3.76;84.58;96837.38;4855564;29;20036;-71
2021/01/23 15:08:35;;;;;;;13.93;7.53;;;;;;;3.80;85.30;96833.03;4854425;29;20111;-74
2021/01/23 15:11:01;;;;;;;16.38;10.65;;;;;;;3.76;85.50;96837.38;4854649;29;20125;-71
2021/01/23 15:13:28;;;;;;;17.98;9.23;;;;;;;3.84;85.46;96829.53;4855856;29;20507;-71
2021/01/23 15:15:54;;;;;;;16.90;9.43;;;;;;;3.74;85.57;96823.78;4853703;29;20029;-74
2021/01/23 15:18:19;;;;;;;12.15;8.70;;;;;;;3.72;85.70;96820.38;4854323;29;20040;-74
2021/01/23 15:20:48;;;;;;;15.75;8.60;;;;;;;3.63;86.20;96812.94;4854895;29;20033;-72
2021/01/23 15:23:13;;;;;;;16.38;8.52;;;;;;;3.44;86.36;96794.56;4854888;29;20636;-73
2021/01/23 15:25:38;;;;;;;10.95;6.50;;;;;;;3.42;86.00;96786.06;4854065;29;20037;-74
2021/01/23 15:28:04;;;;;;;9.35;5.63;;;;;;;3.30;85.80;96787.19;4854165;29;20429;-66
2021/01/23 15:30:29;;;;;;;9.35;6.30;;;;;;;3.26;85.83;96792.41;4853129;29;20495;-66
2021/01/23 15:32:55;;;;;;;8.52;6.45;;;;;;;3.33;85.67;96792.22;4853372;29;20045;-71
2021/01/23 15:35:20;;;;;;;8.90;5.60;;;;;;;3.37;84.79;96792.16;4853222;29;20081;-68
2021/01/23 15:37:45;;;;;;;6.35;5.22;;;;;;;3.27;84.66;96787.25;4853334;29;20120;-72
2021/01/23 15:40:12;;;;;;;7.43;5.10;;;;;;;3.25;84.67;96786.44;4854874;29;20081;-72
2021/01/23 15:42:41;;;;;;;5.45;4.68;;;;;;;3.24;84.62;96787.34;4854156;29;20109;-71
2021/01/23 15:45:07;;;;;;;6.00;5.00;;;;;;;3.25;85.06;96794.13;4853145;29;20036;-67
2021/01/23 15:47:32;;;;;;;7.00;5.05;;;;;;;3.21;84.85;96791.66;4853396;29;20029;-74
2021/01/23 15:49:58;;;;;;;8.57;5.43;;;;;;;3.17;84.37;96780.63;4852535;29;20101;-72
2021/01/23 15:52:23;;;;;;;8.25;5.43;;;;;;;3.16;83.92;96784.06;4867934;29;20477;-71
2021/01/23 15:54:49;;;;;;;8.38;5.30;;;;;;;3.13;83.22;96783.28;4854309;29;20033;-71
2021/01/23 15:57:16;;;;;;;6.97;5.15;;;;;;;3.09;83.35;96778.25;4854633;29;20029;-72
2021/01/23 15:59:41;;;;;;;9.10;5.15;;;;;;;3.05;84.07;96786.03;4852793;29;20491;-73
2021/01/23 16:02:06;;;;;;;9.38;6.35;;;;;;;2.91;84.12;96777.78;4852712;29;20097;-73
2021/01/23 16:04:32;;;;;;;9.20;6.05;;;;;;;2.90;83.84;96773.53;4853731;29;20029;-71
2021/01/23 16:06:57;;;;;;;6.68;4.95;;;;;;;2.90;83.78;96768.41;4854723;29;20398;-72
2021/01/23 16:09:22;;;;;;;7.03;4.63;;;;;;;2.82;83.71;96769.41;4852553;29;20026;-66
2021/01/23 16:11:48;;;;;;;9.82;5.85;;;;;;;2.76;84.19;96769.53;4852202;29;20060;-67
2021/01/23 16:14:14;;;;;;;8.57;6.43;;;;;;;2.77;84.67;96778.91;4850958;29;20044;-67
2021/01/23 16:16:40;;;;;;;11.93;7.57;;;;;;;2.72;84.92;96778.16;4866213;29;20042;-67
2021/01/23 16:19:05;;;;;;;17.52;9.38;;;;;;;2.73;85.63;96772.16;4852188;29;20037;-74
2021/01/23 16:21:30;;;;;;;15.82;8.93;;;;;;;2.68;86.06;96766.28;4849331;29;20037;-66
2021/01/23 16:23:56;;;;;;;20.05;9.73;;;;;;;2.68;86.19;96766.28;4852833;29;20037;-72
2021/01/23 16:26:21;;;;;;;16.55;8.48;;;;;;;2.64;85.71;96769.78;4852772;29;20496;-73
2021/01/23 16:28:47;;;;;;;15.48;8.80;;;;;;;2.61;85.90;96772.41;4852200;29;20033;-70
2021/01/23 16:31:12;;;;;;;16.27;9.07;;;;;;;2.54;85.89;96764.00;4854284;29;20518;-72
2021/01/23 16:33:38;;;;;;;13.63;9.30;;;;;;;2.50;86.69;96766.63;4852809;29;20039;-67
2021/01/23 16:36:05;;;;;;;15.10;9.30;;;;;;;2.42;87.48;96758.25;4851837;29;20033;-67
2021/01/23 16:38:30;;;;;;;13.35;8.75;;;;;;;2.54;86.84;96758.03;4852079;29;20065;-74
2021/01/23 16:40:55;;;;;;;11.18;7.93;;;;;;;2.65;86.09;96756.09;4856673;29;20030;-73
2021/01/23 16:43:21;;;;;;;14.88;9.32;;;;;;;2.52;86.02;96760.63;4855442;29;20912;-73
2021/01/23 16:45:46;;;;;;;13.38;8.05;;;;;;;2.56;86.17;96761.38;4853730;29;20037;-67
2021/01/23 16:48:12;;;;;;;12.00;7.18;;;;;;;2.42;87.04;96761.69;4851860;29;20033;-68
2021/01/23 16:50:37;;;;;;;14.65;9.15;;;;;;;2.36;87.30;96763.47;4852034;29;20060;-73
2021/01/23 16:53:02;;;;;;;16.27;9.50;;;;;;;2.35;87.69;96765.19;4866201;29;20101;-73
2021/01/23 16:55:28;;;;;;;17.85;11.77;;;;;;;2.29;87.93;96758.50;4850174;29;20436;-73
2021/01/23 16:57:53;;;;;;;17.02;10.73;;;;;;;2.25;87.94;96761.97;4863666;29;20037;-73
2021/01/23 17:00:19;;;;;;;17.20;10.25;;;;;;;2.23;87.76;96763.72;4854604;29;20055;-72
2021/01/23 17:02:45;;;;;;;18.35;11.93;;;;;;;2.25;87.90;96756.84;4854089;29;20037;-74
2021/01/23 17:05:11;;;;;;;21.92;14.18;;;;;;;2.26;87.56;96755.97;4853756;29;20037;-74
2021/01/23 17:07:36;;;;;;;22.77;13.65;;;;;;;2.28;86.85;96751.69;4855645;29;20037;-74
2021/01/23 17:10:03;;;;;;;21.95;14.80;;;;;;;2.36;86.33;96753.25;4852234;29;20555;-68
2021/01/23 17:12:29;;;;;;;19.20;11.73;;;;;;;2.35;86.09;96744.75;4850773;29;20033;-69
2021/01/23 17:14:54;;;;;;;17.58;10.15;;;;;;;2.25;86.71;96736.41;4849781;29;20041;-68
2021/01/23 17:17:22;;;;;;;13.90;8.90;;;;;;;2.26;86.06;96738.09;4851260;29;20037;-68
2021/01/23 17:19:47;;;;;;;17.73;12.50;;;;;;;2.33;85.61;96725.22;4854338;29;20033;-72
2021/01/23 17:22:13;;;;;;;20.08;13.18;;;;;;;2.27;86.31;96724.47;4855009;29;20037;-73
2021/01/23 17:24:38;;;;;;;15.38;10.73;;;;;;;2.26;85.86;96717.66;4852667;29;20515;-69
2021/01/23 17:27:05;;;;;;;12.70;9.77;;;;;;;2.26;84.40;96719.38;4851235;29;20032;-68
2021/01/23 17:29:30;;;;;;;29.08;15.15;;;;;;;2.30;83.90;96714.19;4853029;29;20021;-74
2021/01/23 17:31:56;;;;;;;22.10;13.32;;;;;;;2.29;83.61;96706.56;4854640;29;20403;-72
2021/01/23 17:34:21;;;;;;;27.15;12.73;;;;;;;2.30;83.66;96706.50;4851844;29;20125;-68
2021/01/23 17:36:47;;;;;;;27.50;14.80;;;;;;;2.34;83.37;96703.91;4849801;29;20030;-69
2021/01/23 17:39:12;;;;;;;14.50;10.30;;;;;;;2.34;83.37;96709.03;4851279;29;20124;-74
2021/01/23 17:41:39;;;;;;;17.88;8.40;;;;;;;2.30;83.92;96709.06;4851980;29;20040;-74
2021/01/23 17:44:05;;;;;;;13.73;8.70;;;;;;;2.32;84.41;96701.38;4862920;29;20041;-68
2021/01/23 17:46:36;;;;;;;18.50;10.63;;;;;;;2.24;85.36;96709.19;4849714;29;20025;-68
2021/01/23 17:49:03;;;;;;;17.08;10.48;;;;;;;2.40;85.07;96703.78;4850998;29;20090;-68
2021/01/23 17:51:29;;;;;;;15.18;11.07;;;;;;;2.27;85.92;96711.69;4850905;29;20032;-69
2021/01/23 17:53:55;;;;;;;17.98;11.95;;;;;;;2.20;86.44;96702.44;4849747;29;20034;-69
2021/01/23 17:56:23;;;;;;;19.38;11.00;;;;;;;2.16;86.41;96700.81;4849526;29;20120;-68
2021/01/23 17:58:49;;;;;;;21.75;10.88;;;;;;;2.07;86.50;96708.66;4851094;29;20029;-68
2021/01/23 18:01:15;;;;;;;14.65;10.55;;;;;;;2.04;86.86;96706.16;4852474;29;20029;-74
2021/01/23 18:03:40;;;;;;;20.73;12.80;;;;;;;2.05;86.86;96685.69;4855018;29;20033;-68
2021/01/23 18:06:06;;;;;;;23.33;13.95;;;;;;;2.02;87.13;96682.34;4856347;29;20025;-71
2021/01/23 18:08:32;;;;;;;29.30;16.13;;;;;;;1.94;86.96;96677.41;4857170;29;20061;-71
2021/01/23 18:10:58;;;;;;;38.92;22.17;;;;;;;1.90;86.22;96667.25;4855309;29;20053;-72
2021/01/23 18:13:23;;;;;;;26.73;16.02;;;;;;;1.83;85.65;96665.66;4855730;29;20117;-74
2021/01/23 18:15:49;;;;;;;15.20;10.45;;;;;;;1.84;85.31;96668.22;4858301;29;20563;-68
2021/01/23 18:18:14;;;;;;;22.40;12.38;;;;;;;1.88;85.66;96661.31;4855740;29;20037;-71
2021/01/23 18:20:39;;;;;;;20.60;11.80;;;;;;;1.88;85.59;96664.72;4857482;29;20045;-71
2021/01/23 18:23:05;;;;;;;20.85;13.48;;;;;;;1.86;85.94;96657.97;4857219;29;20474;-71
2021/01/23 18:25:30;;;;;;;28.25;13.95;;;;;;;1.78;85.98;96653.81;4857685;29;20037;-71
2021/01/23 18:27:55;;;;;;;28.80;14.20;;;;;;;1.88;86.24;96658.78;4858275;29;20053;-71
2021/01/23 18:30:21;;;;;;;28.70;16.95;;;;;;;1.75;87.83;96653.91;4857829;29;20121;-71
2021/01/23 18:32:47;;;;;;;28.95;14.35;;;;;;;1.82;86.99;96653.78;4857102;29;20610;-71